Nearby METAR Reports

 

EGAE - Eglinton/Londond, United Kingdom
Distance from station: N 47km
Updated: 14/09/2019 10:20
NOT Current
Nearby showers, Mostly cloudy
Nearby showers, Mostly cloudy
 Wind from SW
Wind: SW 30 km/h
Temperature: 17°C
Dew Point: 15°C
Humidity: 88%
Barometer: 1021 hPa
Summary: Nearby Showers
Clouds: Mostly cloudy
Visibility: 10 km
Cloud details: Few Clouds 305 m
Mostly cloudy 518 m
2019/09/14 17:20 EGAE 141720Z 23016KT 9999 VCSH FEW010 BKN017 17/15 Q1021
EGAA - Belfast/Aldergro, United Kingdom
Distance from station: E 68km
Updated: 14/09/2019 23:20
Light rain, Few clouds
Light rain, Few clouds
 Wind from W
Wind: W 13 km/h
Temperature: 12°C
Dew Point: 10°C
Humidity: 88%
Barometer: 1023 hPa
Summary: Light rain
Clouds: Few Clouds
Visibility: 10 km
Cloud details: Few Clouds 914 m
2019/09/15 06:20 EGAA 150620Z 26007KT 9999 -RA FEW030 12/10 Q1023